^^
Turner Downs Weather Station Historical Data
 
Daily Summary for May 26, 2020 Units:  English    Metric   Both
Daily Weekly Monthly Yearly Custom
  Current: High: Low: Average:
Temperature: 76 °F 76.1 °F 64.9 °F 67.8 °F
Dew Point: 67 °F 67.2 °F 62.2 °F 63.7 °F
Humidity: 73.6% 92% 72.2% 87%
Wind Speed: 8.3mph 12.3mph 0mph 2.8mph
Wind Gust: 10mph 15mph - -
WindENE - - ENE
Pressure: 30.09 in 30.11 in 30.04 in -
Precipitation: 0.00 in      
 
 
Tabular Data for May 26, 2020
Time Temperature Dew Point Pressure Wind Wind Speed Wind Gust Humidity Rainfall Rate (Hourly) solar
04:04 69.6 °F 64.5 °F 30.08 in ENE 2.8 mph 3.3 mph 84% 0.00 in W/m2
04:09 69.4 °F 64.4 °F 30.08 in ENE 3.2 mph 3 mph 84% 0.00 in W/m2
04:14 69.2 °F 64.2 °F 30.08 in ENE 2 mph 3 mph 84% 0.00 in W/m2
04:19 69.2 °F 64.3 °F 30.08 in ENE 2.2 mph 3 mph 84.7% 0.00 in W/m2
04:24 69 °F 64.3 °F 30.08 in ENE 0.5 mph 3 mph 85% 0.00 in W/m2
04:29 68.9 °F 64.2 °F 30.08 in ENE 1.7 mph 2 mph 85% 0.00 in W/m2
04:34 68.7 °F 64 °F 30.08 in ENE 1.4 mph 3 mph 85% 0.00 in W/m2
04:39 68.6 °F 64 °F 30.08 in Calm   2 mph 85.2% 0.00 in W/m2
04:44 68.5 °F 64.1 °F 30.08 in ENE 0.5 mph 0.2 mph 86% 0.00 in W/m2
04:49 68.4 °F 64 °F 30.08 in Calm   2 mph 86% 0.00 in W/m2
04:54 68.2 °F 63.9 °F 30.08 in Calm     86% 0.00 in W/m2
04:59 68 °F 63.7 °F 30.08 in Calm     86% 0.00 in W/m2
05:04 67.9 °F 63.6 °F 30.08 in Calm     86.1% 0.00 in W/m2
05:09 67.8 °F 63.5 °F 30.07 in Calm     86.1% 0.00 in W/m2
05:14 67.6 °F 63.4 °F 30.08 in Calm     86.3% 0.00 in W/m2
05:19 67.5 °F 63.5 °F 30.08 in Calm     87% 0.00 in W/m2
05:24 67.3 °F 63.6 °F 30.08 in Calm     88% 0.00 in W/m2
05:29 67.1 °F 63.4 °F 30.08 in Calm     88% 0.00 in W/m2
05:34 67 °F 63.3 °F 30.07 in Calm     88% 0.00 in W/m2
05:39 66.9 °F 63.3 °F 30.07 in Calm     88.3% 0.00 in W/m2
05:44 66.8 °F 63.5 °F 30.07 in Calm     89% 0.00 in W/m2
05:49 66.7 °F 63.4 °F 30.07 in Calm     89% 0.00 in W/m2
05:54 66.6 °F 63.3 °F 30.07 in Calm     89% 0.00 in W/m2
05:59 66.5 °F 63.2 °F 30.07 in Calm     89% 0.00 in W/m2
06:04 66.5 °F 63.2 °F 30.07 in Calm     89% 0.00 in W/m2
06:09 66.4 °F 63.2 °F 30.07 in Calm     89.3% 0.00 in W/m2
06:14 66.4 °F 63.4 °F 30.07 in Calm     90% 0.00 in W/m2
06:19 66.4 °F 63.4 °F 30.07 in Calm     90% 0.00 in W/m2
06:24 66.4 °F 63.4 °F 30.07 in ENE 0.9 mph 0.6 mph 90% 0.00 in W/m2
06:29 66.4 °F 63.4 °F 30.07 in ENE 0.6 mph 2 mph 90% 0.00 in W/m2
06:34 66.4 °F 63.4 °F 30.06 in ENE 0.4 mph 2 mph 90% 0.00 in W/m2
06:39 66.4 °F 63.4 °F 30.06 in ENE 1.3 mph 2 mph 90% 0.00 in W/m2
06:44 66.4 °F 63.4 °F 30.06 in ENE 0.9 mph 3 mph 90% 0.00 in W/m2
06:49 66.4 °F 63.4 °F 30.06 in ENE 0.9 mph 2 mph 90% 0.00 in W/m2
06:54 66.4 °F 63.4 °F 30.06 in Calm   2 mph 90% 0.00 in W/m2
06:59 66.4 °F 63.4 °F 30.06 in Calm     90% 0.00 in W/m2
07:04 66.4 °F 63.4 °F 30.06 in Calm     90% 0.00 in W/m2
07:09 66.5 °F 63.5 °F 30.05 in Calm     90% 0.00 in W/m2
07:14 66.5 °F 63.5 °F 30.05 in Calm     90% 0.00 in W/m2
07:19 66.5 °F 63.5 °F 30.05 in Calm     90% 0.00 in W/m2
07:24 66.5 °F 63.5 °F 30.05 in Calm     90% 0.00 in W/m2
07:29 66.5 °F 63.5 °F 30.05 in Calm     90% 0.00 in W/m2
07:34 66.5 °F 63.5 °F 30.05 in Calm     90% 0.00 in W/m2
07:39 66.5 °F 63.5 °F 30.05 in Calm     90% 0.00 in W/m2
07:44 66.5 °F 63.5 °F 30.05 in Calm     90% 0.00 in W/m2
07:49 66.6 °F 63.6 °F 30.05 in Calm     90% 0.00 in W/m2
07:54 66.6 °F 63.6 °F 30.04 in Calm     90% 0.00 in W/m2
07:59 66.6 °F 63.6 °F 30.04 in Calm     90% 0.00 in W/m2
08:04 66.6 °F 63.6 °F 30.05 in ENE 0.3 mph 0.1 mph 90% 0.00 in W/m2
08:09 66.5 °F 63.5 °F 30.05 in Calm   2 mph 90% 0.00 in W/m2
08:14 66.5 °F 63.5 °F 30.05 in Calm     90% 0.00 in W/m2
08:19 66.5 °F 63.5 °F 30.05 in Calm     90% 0.00 in W/m2
08:24 66.5 °F 63.5 °F 30.05 in Calm     90% 0.00 in W/m2
08:29 66.5 °F 63.5 °F 30.05 in Calm     90% 0.00 in W/m2
08:34 66.5 °F 63.5 °F 30.05 in ENE 0.9 mph 2.5 mph 90% 0.00 in W/m2
08:39 66.5 °F 63.5 °F 30.05 in ENE 1.2 mph 3 mph 90% 0.00 in W/m2
08:44 66.4 °F 63.4 °F 30.05 in ENE 0.5 mph 2 mph 90% 0.00 in W/m2
08:49 66.4 °F 63.4 °F 30.06 in ENE 0.4 mph 2.1 mph 90% 0.00 in W/m2
08:54 66.4 °F 63.4 °F 30.06 in ENE 1 mph 3 mph 90% 0.00 in W/m2
08:59 66.4 °F 63.4 °F 30.06 in Calm   2 mph 90% 0.00 in W/m2
09:04 66.3 °F 63.6 °F 30.06 in Calm     90.8% 0.00 in W/m2
09:09 66.3 °F 63.6 °F 30.06 in Calm     91% 0.00 in W/m2
09:14 66.3 °F 63.6 °F 30.06 in Calm     91% 0.00 in W/m2
09:19 66.3 °F 63.6 °F 30.06 in Calm     91% 0.00 in W/m2
09:24 66.3 °F 63.6 °F 30.06 in Calm     91% 0.00 in W/m2
09:29 66.3 °F 63.6 °F 30.06 in ENE 0.3 mph 1.3 mph 91% 0.00 in W/m2
09:34 66.3 °F 63.6 °F 30.06 in ENE 2.7 mph 3 mph 91% 0.00 in W/m2
09:39 66.2 °F 63.5 °F 30.06 in ENE 2 mph 3.8 mph 91% 0.00 in W/m2
09:44 66.1 °F 63.4 °F 30.06 in ENE 1.1 mph 3 mph 91% 0.00 in W/m2
09:49 66.1 °F 63.4 °F 30.07 in Calm   2 mph 91% 0.00 in W/m2
09:54 66.1 °F 63.4 °F 30.07 in ENE 0.4 mph 0.5 mph 91% 0.00 in W/m2
09:59 66 °F 63.3 °F 30.06 in ENE 0.6 mph 2 mph 91% 0.00 in W/m2
10:04 65.9 °F 63.2 °F 30.06 in ENE 1.4 mph 2.1 mph 91% 0.00 in W/m2
10:09 65.8 °F 63.3 °F 30.07 in ENE 1.5 mph 2.2 mph 91.6% 0.00 in W/m2
10:14 65.8 °F 63.4 °F 30.07 in ENE 1 mph 3 mph 92% 0.00 in W/m2
10:19 65.7 °F 63.3 °F 30.07 in ENE 1.9 mph 2.1 mph 92% 0.00 in W/m2
10:24 65.7 °F 63.3 °F 30.07 in ENE 3 mph 3 mph 92% 0.00 in W/m2
10:29 65.7 °F 63.3 °F 30.07 in NE 2.4 mph 3.3 mph 92% 0.00 in W/m2
10:34 65.6 °F 63.2 °F 30.07 in NE 2.4 mph 3 mph 92% 0.00 in W/m2
10:39 65.6 °F 63.2 °F 30.08 in NE 2.1 mph 5 mph 92% 0.00 in W/m2
10:44 65.6 °F 63.2 °F 30.08 in NNE 0.9 mph 3 mph 92% 0.00 in W/m2
10:49 65.6 °F 63.2 °F 30.08 in ENE 4 mph 4.9 mph 92% 0.00 in W/m2
10:54 65.6 °F 63.2 °F 30.08 in ENE 4.7 mph 5.2 mph 92% 0.00 in W/m2
10:59 65.5 °F 62.9 °F 30.08 in ENE 2.9 mph 6 mph 91.1% 0.00 in W/m2
11:04 65.5 °F 62.8 °F 30.08 in ENE 1.7 mph 5 mph 91% 0.00 in W/m2
11:09 65.4 °F 62.7 °F 30.09 in ENE 2.3 mph 3 mph 91% 0.00 in W/m2
11:14 65.3 °F 62.6 °F 30.09 in ENE 2.3 mph 3 mph 91% 0.00 in W/m2
11:19 65.3 °F 62.6 °F 30.09 in ENE 1.6 mph 3 mph 91% 0.00 in W/m2
11:24 65.3 °F 62.6 °F 30.09 in ENE 1.6 mph 4 mph 91% 0.00 in W/m2
11:29 65.2 °F 62.7 °F 30.09 in ENE 1.8 mph 5 mph 91.6% 0.00 in W/m2
11:34 65.2 °F 62.8 °F 30.09 in ENE 0.2 mph 2 mph 92% 0.00 in W/m2
11:39 65.2 °F 62.8 °F 30.09 in ENE 1.8 mph 2.6 mph 92% 0.00 in W/m2
11:44 65.2 °F 62.5 °F 30.09 in ENE 2.5 mph 3 mph 91% 0.00 in W/m2
11:49 65 °F 62.3 °F 30.09 in ENE 2.4 mph 3 mph 91% 0.00 in W/m2
11:54 65 °F 62.3 °F 30.09 in ENE 1.8 mph 3 mph 91% 0.00 in W/m2
11:59 64.9 °F 62.2 °F 30.09 in ENE 2.9 mph 5 mph 91.1% 0.00 in W/m2
12:04 64.9 °F 62.5 °F 30.09 in ENE 2.2 mph 5 mph 91.8% 0.00 in W/m2
12:09 65 °F 62.6 °F 30.09 in ENE 2.5 mph 3 mph 92% 0.00 in W/m2
12:14 65 °F 62.5 °F 30.09 in ENE 2.6 mph 5 mph 91.6% 0.00 in W/m2
12:19 64.9 °F 62.3 °F 30.09 in ENE 3.1 mph 3.6 mph 91.4% 0.00 in W/m2
12:24 65 °F 62.6 °F 30.09 in ENE 3.5 mph 3.3 mph 91.9% 0.00 in W/m2
12:29 65.3 °F 62.8 °F 30.09 in ENE 2.8 mph 3 mph 91.9% 0.00 in W/m2
12:34 65.5 °F 62.9 °F 30.10 in ENE 6.4 mph 7.1 mph 91.2% 0.00 in W/m2
12:39 65.5 °F 62.7 °F 30.10 in ENE 6.6 mph 8 mph 90.5% 0.00 in W/m2
12:44 65.5 °F 62.6 °F 30.10 in ENE 4.5 mph 9 mph 90.5% 0.00 in W/m2
12:49 65.4 °F 62.5 °F 30.10 in ENE 4.8 mph 6 mph 90.3% 0.00 in W/m2
12:54 65.6 °F 62.8 °F 30.10 in East 4.7 mph 6 mph 90.5% 0.00 in W/m2
12:59 65.7 °F 62.7 °F 30.10 in ENE 7 mph 7.3 mph 89.9% 0.00 in W/m2
13:04 65.8 °F 62.7 °F 30.11 in ENE 6.7 mph 9.2 mph 89.5% 0.00 in W/m2
13:09 65.8 °F 62.5 °F 30.11 in ENE 8.5 mph 12 mph 88.9% 0.00 in W/m2
13:14 65.9 °F 62.3 °F 30.11 in ENE 4.7 mph 9 mph 88.5% 0.00 in W/m2
13:19 65.9 °F 62.3 °F 30.11 in ENE 6.8 mph 8.9 mph 88.3% 0.00 in W/m2
13:24 66.2 °F 62.7 °F 30.11 in East 3 mph 9 mph 88.5% 0.00 in W/m2
13:29 66.5 °F 63 °F 30.11 in ENE 5.4 mph 9.1 mph 88.5% 0.00 in W/m2
13:34 66.6 °F 62.7 °F 30.11 in ENE 7.8 mph 9.3 mph 87.2% 0.00 in W/m2
13:39 66.6 °F 62.6 °F 30.11 in ENE 7.3 mph 10 mph 87% 0.00 in W/m2
13:44 66.6 °F 62.6 °F 30.11 in East 6.2 mph 8 mph 86.9% 0.00 in W/m2
13:49 66.8 °F 62.8 °F 30.11 in ENE 7.1 mph 8 mph 87% 0.00 in W/m2
13:54 67 °F 62.9 °F 30.10 in ENE 4.8 mph 9 mph 86.8% 0.00 in W/m2
13:59 67.3 °F 63 °F 30.10 in ENE 8.2 mph 8.9 mph 85.9% 0.00 in W/m2
14:04 67.4 °F 62.8 °F 30.11 in ENE 9 mph 10.4 mph 85.3% 0.00 in W/m2
14:09 67.9 °F 63.3 °F 30.10 in ENE 8.9 mph 15 mph 85.3% 0.00 in W/m2
14:14 68.8 °F 63.9 °F 30.10 in ENE 8.7 mph 14 mph 84.5% 0.00 in W/m2
14:19 69.2 °F 63.9 °F 30.10 in ENE 12.3 mph 14 mph 83.2% 0.00 in W/m2
14:24 68.8 °F 63.5 °F 30.10 in ENE 9.8 mph 15 mph 83.3% 0.00 in W/m2
14:29 69.8 °F 64.3 °F 30.10 in ENE 9.5 mph 12 mph 82.9% 0.00 in W/m2
14:34 70.2 °F 64.6 °F 30.10 in ENE 4.9 mph 12 mph 82.6% 0.00 in W/m2
14:39 70.9 °F 64.7 °F 30.10 in ENE 8.2 mph 9.1 mph 80.9% 0.00 in W/m2
14:44 71.6 °F 65.5 °F 30.10 in ENE 5.5 mph 10 mph 81% 0.00 in W/m2
14:49 72.1 °F 65.1 °F 30.10 in NNE 3.1 mph 6 mph 78.6% 0.00 in W/m2
14:54 72.4 °F 65.3 °F 30.10 in NNE 4 mph 5 mph 78.3% 0.00 in W/m2
14:59 72.4 °F 65.3 °F 30.10 in NNW 3.1 mph 6 mph 78.4% 0.00 in W/m2
15:04 72.4 °F 65.3 °F 30.10 in ENE 8.2 mph 10.2 mph 78.2% 0.00 in W/m2
15:09 73.2 °F 66.1 °F 30.11 in ENE 5 mph 12 mph 78.5% 0.00 in W/m2
15:14 73.7 °F 65.2 °F 30.11 in ENE 5.8 mph 9 mph 74.8% 0.00 in W/m2
15:19 73.1 °F 64.4 °F 30.11 in East 9.1 mph 12.4 mph 74.1% 0.00 in W/m2
15:24 73.1 °F 64.7 °F 30.11 in ENE 7 mph 12 mph 74.9% 0.00 in W/m2
15:29 74.7 °F 66.7 °F 30.11 in ENE 6.5 mph 10 mph 76.2% 0.00 in W/m2
15:34 75.1 °F 65.5 °F 30.11 in ENE 9 mph 10 mph 72.2% 0.00 in W/m2
15:39 74.6 °F 65.6 °F 30.11 in East 5.1 mph 9 mph 73.8% 0.00 in W/m2
15:44 75.6 °F 66.6 °F 30.11 in East 5 mph 7.1 mph 73.9% 0.00 in W/m2
15:49 75.5 °F 66.5 °F 30.11 in East 3.3 mph 8 mph 73.8% 0.00 in W/m2
15:54 75.1 °F 66.3 °F 30.11 in ESE 3.5 mph 5 mph 74% 0.00 in W/m2
15:59 75.1 °F 66.1 °F 30.11 in ENE 5 mph 6.6 mph 73.7% 0.00 in W/m2
16:04 75.5 °F 66.4 °F 30.11 in ENE 5.4 mph 9 mph 73.6% 0.00 in W/m2
16:09 76 °F 66.6 °F 30.11 in ENE 4.8 mph 9 mph 72.6% 0.00 in W/m2
16:14 75.8 °F 66.3 °F 30.10 in ENE 7.5 mph 9.1 mph 72.6% 0.00 in W/m2
16:19 75.3 °F 66.4 °F 30.10 in ENE 5.9 mph 10 mph 73.8% 0.00 in W/m2
16:24 75.7 °F 66.7 °F 30.10 in East 4 mph 8 mph 73.8% 0.00 in W/m2
16:29 76.1 °F 67.2 °F 30.10 in East 6.1 mph 7.7 mph 74.2% 0.00 in W/m2
16:34 76 °F 66.8 °F 30.09 in ENE 7.9 mph 9.4 mph 73.4% 0.00 in W/m2
16:38 76 °F 67 °F 30.09 in ENE 8.3 mph 10 mph 73.6% 0.00 in W/m2
Raleigh, North Carolina, USA
Compliments of Weather Underground - 2.5 mb